createdAt,value
2023-12-05T00:00:16.632Z,101378.97
2023-12-05T00:02:45.802Z,101380.90
2023-12-05T00:05:14.291Z,101383.55
2023-12-05T00:07:44.515Z,101389.30
2023-12-05T00:10:13.036Z,101394.65
2023-12-05T00:12:41.654Z,101391.21
2023-12-05T00:15:10.328Z,101392.27
2023-12-05T00:17:38.503Z,101392.86
2023-12-05T00:20:07.673Z,101394.51
2023-12-05T00:22:37.714Z,101399.23
2023-12-05T00:25:06.479Z,101403.85
2023-12-05T00:27:35.449Z,101402.34
2023-12-05T00:30:04.665Z,101396.52
2023-12-05T00:32:33.151Z,101393.81
2023-12-05T00:35:01.451Z,101390.88
2023-12-05T00:37:30.013Z,101396.95
2023-12-05T00:39:58.224Z,101401.15
2023-12-05T00:42:26.715Z,101406.05
2023-12-05T00:44:54.939Z,101403.17
2023-12-05T00:47:23.230Z,101401.73
2023-12-05T00:49:51.424Z,101406.70
2023-12-05T00:52:19.865Z,101406.83
2023-12-05T00:54:48.093Z,101404.42
2023-12-05T00:57:16.281Z,101402.89
2023-12-05T00:59:44.572Z,101400.27
2023-12-05T01:02:12.862Z,101404.31
2023-12-05T01:04:41.238Z,101403.80
2023-12-05T01:07:13.945Z,101397.19
2023-12-05T01:09:42.222Z,101397.03
2023-12-05T01:12:12.003Z,101393.77
2023-12-05T01:14:40.380Z,101393.64
2023-12-05T01:17:08.909Z,101396.92
2023-12-05T01:19:39.107Z,101395.27
2023-12-05T01:22:07.610Z,101387.58
2023-12-05T01:24:35.945Z,101386.50
2023-12-05T01:27:05.086Z,101385.89
2023-12-05T01:29:33.537Z,101383.57
2023-12-05T01:32:01.693Z,101384.17
2023-12-05T01:34:29.982Z,101381.26
2023-12-05T01:36:58.324Z,101379.72
2023-12-05T01:39:26.603Z,101375.86
2023-12-05T01:41:55.088Z,101377.70
2023-12-05T01:44:24.013Z,101368.86
2023-12-05T01:46:52.329Z,101362.05
2023-12-05T01:49:28.753Z,101354.81
2023-12-05T01:51:58.512Z,101350.61
2023-12-05T01:54:28.952Z,101345.91
2023-12-05T01:56:57.607Z,101346.41
2023-12-05T01:59:26.025Z,101343.20
2023-12-05T02:01:54.538Z,101340.16
2023-12-05T02:04:23.157Z,101340.13
2023-12-05T02:06:51.525Z,101337.20
2023-12-05T02:09:20.895Z,101334.11
2023-12-05T02:11:49.321Z,101332.17
2023-12-05T02:14:17.701Z,101326.36
2023-12-05T02:16:53.122Z,101320.20
2023-12-05T02:20:08.415Z,101325.40
2023-12-05T02:22:45.022Z,101326.98
2023-12-05T02:25:44.494Z,101326.28
2023-12-05T02:28:12.899Z,101321.98
2023-12-05T02:30:41.269Z,101321.42
2023-12-05T02:33:09.600Z,101318.14
2023-12-05T02:35:38.577Z,101319.58
2023-12-05T02:38:10.447Z,101323.13
2023-12-05T02:40:53.736Z,101326.34
2023-12-05T02:43:31.247Z,101320.27
2023-12-05T02:46:08.653Z,101317.50
2023-12-05T02:48:38.912Z,101322.50
2023-12-05T02:51:07.530Z,101319.45
2023-12-05T02:53:35.965Z,101323.02
2023-12-05T02:56:04.979Z,101322.35
2023-12-05T02:58:33.212Z,101324.00
2023-12-05T03:01:03.265Z,101319.04
2023-12-05T03:03:31.662Z,101315.36
2023-12-05T03:06:00.093Z,101312.42
2023-12-05T03:08:28.515Z,101310.02
2023-12-05T03:11:03.398Z,101317.21
2023-12-05T03:13:35.990Z,101310.36
2023-12-05T03:16:04.883Z,101308.41
2023-12-05T03:18:33.484Z,101305.00
2023-12-05T03:21:01.710Z,101296.10
2023-12-05T03:23:30.407Z,101294.01
2023-12-05T03:25:58.791Z,101280.98
2023-12-05T03:28:27.100Z,101279.42
2023-12-05T03:30:55.422Z,101276.90
2023-12-05T03:33:23.655Z,101280.83
2023-12-05T03:35:51.973Z,101281.09
2023-12-05T03:38:20.351Z,101281.83
2023-12-05T03:40:48.656Z,101279.36
2023-12-05T03:43:16.957Z,101276.52
2023-12-05T03:45:45.317Z,101275.17
2023-12-05T03:48:13.625Z,101269.74
2023-12-05T03:50:42.128Z,101262.42
2023-12-05T03:53:10.347Z,101255.64
2023-12-05T03:55:38.633Z,101251.20
2023-12-05T03:58:06.830Z,101251.43
2023-12-05T04:00:35.096Z,101241.84
2023-12-05T04:03:03.403Z,101241.42
2023-12-05T04:05:31.914Z,101240.21
2023-12-05T04:08:00.267Z,101236.00
2023-12-05T04:10:28.433Z,101234.48
2023-12-05T04:12:57.658Z,101231.48
2023-12-05T04:15:26.024Z,101227.88
2023-12-05T04:17:54.328Z,101222.78
2023-12-05T04:20:23.113Z,101220.39
2023-12-05T04:22:51.471Z,101224.41
2023-12-05T04:25:19.934Z,101221.32
2023-12-05T04:27:48.284Z,101218.27
2023-12-05T04:30:17.197Z,101218.84
2023-12-05T04:32:46.249Z,101216.15
2023-12-05T04:35:16.530Z,101212.20
2023-12-05T04:37:44.842Z,101206.41
2023-12-05T04:40:13.509Z,101204.19
2023-12-05T04:42:41.753Z,101205.31
2023-12-05T04:45:10.257Z,101208.18
2023-12-05T04:47:38.526Z,101204.87
2023-12-05T04:50:07.375Z,101200.95
2023-12-05T04:52:35.694Z,101198.64
2023-12-05T04:55:04.781Z,101195.27
2023-12-05T04:57:32.965Z,101195.50
2023-12-05T05:00:01.465Z,101192.34
2023-12-05T05:02:29.684Z,101187.52
2023-12-05T05:04:58.086Z,101180.07
2023-12-05T05:07:26.461Z,101174.95
2023-12-05T05:09:54.762Z,101173.77
2023-12-05T05:12:24.019Z,101174.16
2023-12-05T05:14:52.304Z,101177.91
2023-12-05T05:17:20.612Z,101179.06
2023-12-05T05:19:49.328Z,101178.67
2023-12-05T05:22:17.956Z,101178.69
2023-12-05T05:24:46.187Z,101177.95
2023-12-05T05:27:15.397Z,101174.98
2023-12-05T05:29:43.631Z,101174.66
2023-12-05T05:32:12.041Z,101173.24
2023-12-05T05:34:40.465Z,101165.63
2023-12-05T05:37:08.724Z,101160.02
2023-12-05T05:39:37.130Z,101160.16
2023-12-05T05:42:05.882Z,101165.88
2023-12-05T05:44:34.656Z,101165.09
2023-12-05T05:47:02.916Z,101165.15
2023-12-05T05:49:31.379Z,101157.80
2023-12-05T05:51:59.924Z,101151.40
2023-12-05T05:54:28.233Z,101148.66
2023-12-05T05:56:56.569Z,101145.90
2023-12-05T05:59:24.787Z,101143.44
2023-12-05T06:01:53.122Z,101142.01
2023-12-05T06:04:21.785Z,101139.96
2023-12-05T06:06:50.555Z,101140.33
2023-12-05T06:09:18.817Z,101140.46
2023-12-05T06:11:47.467Z,101131.23
2023-12-05T06:14:15.953Z,101127.98
2023-12-05T06:16:44.404Z,101129.34
2023-12-05T06:19:12.986Z,101124.98
2023-12-05T06:21:41.504Z,101119.14
2023-12-05T06:24:11.255Z,101115.68
2023-12-05T06:26:39.965Z,101107.97
2023-12-05T06:29:08.294Z,101105.13
2023-12-05T06:31:37.266Z,101102.23
2023-12-05T06:34:05.568Z,101094.98
2023-12-05T06:36:34.123Z,101088.04
2023-12-05T06:39:02.693Z,101090.62
2023-12-05T06:41:30.897Z,101088.11
2023-12-05T06:43:59.225Z,101080.91
2023-12-05T06:46:27.774Z,101085.25
2023-12-05T06:48:56.270Z,101080.16
2023-12-05T06:51:24.638Z,101083.04
2023-12-05T06:53:52.911Z,101086.48
2023-12-05T06:56:21.826Z,101089.31
2023-12-05T06:58:50.326Z,101090.88
2023-12-05T07:01:19.517Z,101095.94
2023-12-05T07:03:53.684Z,101094.45
2023-12-05T07:06:25.751Z,101088.38
2023-12-05T07:08:54.346Z,101084.80
2023-12-05T07:11:22.840Z,101087.34
2023-12-05T07:13:51.117Z,101085.24
2023-12-05T07:16:19.363Z,101080.73
2023-12-05T07:18:47.989Z,101075.84
2023-12-05T07:21:16.520Z,101080.98
2023-12-05T07:23:52.206Z,101083.34
2023-12-05T07:26:24.328Z,101087.08
2023-12-05T07:28:52.649Z,101086.64
2023-12-05T07:31:21.758Z,101088.22
2023-12-05T07:33:50.474Z,101087.63
2023-12-05T07:36:19.096Z,101091.14
2023-12-05T07:38:47.553Z,101103.54
2023-12-05T07:41:22.669Z,101104.63
2023-12-05T07:43:51.029Z,101112.05
2023-12-05T07:46:19.752Z,101116.58
2023-12-05T07:48:48.995Z,101126.63
2023-12-05T07:51:19.596Z,101131.59
2023-12-05T07:53:50.232Z,101140.16
2023-12-05T07:56:19.331Z,101138.31
2023-12-05T07:58:47.650Z,101138.63
2023-12-05T08:01:15.903Z,101137.17
2023-12-05T08:03:44.493Z,101140.93
2023-12-05T08:06:13.524Z,101142.67
2023-12-05T08:08:41.935Z,101142.29
2023-12-05T08:11:13.005Z,101146.06
2023-12-05T08:13:42.310Z,101152.94
2023-12-05T08:16:11.095Z,101155.36
2023-12-05T08:18:39.594Z,101164.54
2023-12-05T08:21:08.375Z,101172.71
2023-12-05T08:23:36.764Z,101183.34
2023-12-05T08:26:05.985Z,101195.29
2023-12-05T08:28:35.789Z,101209.69
2023-12-05T08:31:04.645Z,101219.49
2023-12-05T08:33:33.205Z,101231.11
2023-12-05T08:36:02.840Z,101246.84
2023-12-05T08:38:31.252Z,101261.83
2023-12-05T08:40:59.599Z,101275.97
2023-12-05T08:43:28.097Z,101292.74
2023-12-05T08:45:56.289Z,101299.83
2023-12-05T08:48:24.813Z,101306.71
2023-12-05T08:50:53.378Z,101325.67
2023-12-05T08:53:22.143Z,101342.36
2023-12-05T08:55:50.684Z,101361.96
2023-12-05T08:58:19.010Z,101377.19
2023-12-05T09:00:47.469Z,101397.08
2023-12-05T09:03:15.877Z,101408.96
2023-12-05T09:05:44.265Z,101418.70
2023-12-05T09:08:12.804Z,101428.23
2023-12-05T09:10:41.125Z,101450.40
2023-12-05T09:13:09.635Z,101470.09
2023-12-05T09:15:38.983Z,101481.09
2023-12-05T09:18:07.343Z,101480.98
2023-12-05T09:20:35.564Z,101490.08
2023-12-05T09:23:04.100Z,101495.88
2023-12-05T09:25:32.414Z,101509.13
2023-12-05T09:28:00.942Z,101513.79
2023-12-05T09:30:29.813Z,101515.27
2023-12-05T09:32:58.368Z,101509.37
2023-12-05T09:35:27.226Z,101491.83
2023-12-05T09:37:55.524Z,101473.25
2023-12-05T09:40:24.176Z,101465.27
2023-12-05T09:42:53.624Z,101445.84
2023-12-05T09:45:22.565Z,101422.97
2023-12-05T09:47:51.825Z,101388.14
2023-12-05T09:50:20.816Z,101357.24
2023-12-05T09:52:49.442Z,101321.02
2023-12-05T09:55:18.329Z,101288.80
2023-12-05T09:57:47.267Z,101249.40
2023-12-05T10:00:16.017Z,101214.66
2023-12-05T10:02:47.556Z,101181.87
2023-12-05T10:05:17.494Z,101149.11
2023-12-05T10:07:47.750Z,101119.97
2023-12-05T10:10:20.135Z,101097.92
2023-12-05T10:12:49.670Z,101081.44
2023-12-05T10:15:18.264Z,101063.13
2023-12-05T10:17:48.494Z,101057.92
2023-12-05T10:20:17.131Z,101049.02
2023-12-05T10:22:45.720Z,101052.48
2023-12-05T10:25:16.416Z,101047.51
2023-12-05T10:27:44.707Z,101043.02
2023-12-05T10:30:15.649Z,101026.68
2023-12-05T10:32:46.096Z,101023.51
2023-12-05T10:35:14.841Z,101024.41
2023-12-05T10:37:43.860Z,101021.92
2023-12-05T10:40:13.046Z,101016.73
2023-12-05T10:42:41.458Z,101010.88
2023-12-05T10:45:10.863Z,101010.64
2023-12-05T10:47:39.171Z,101007.91
2023-12-05T10:50:08.067Z,101009.11
2023-12-05T10:52:36.659Z,101014.80
2023-12-05T10:55:05.563Z,101012.97
2023-12-05T10:57:37.771Z,101001.50
2023-12-05T11:00:07.740Z,100995.54
2023-12-05T11:02:37.703Z,100995.73
2023-12-05T11:05:06.781Z,100992.29
2023-12-05T11:07:35.075Z,100989.42
2023-12-05T11:10:04.528Z,100990.90
2023-12-05T11:12:34.220Z,100992.59
2023-12-05T11:15:02.553Z,100996.12
2023-12-05T11:17:40.071Z,100996.82
2023-12-05T11:20:31.647Z,101005.52
2023-12-05T11:23:07.520Z,101009.72
2023-12-05T11:26:03.097Z,101003.40
2023-12-05T11:28:48.883Z,101004.77
2023-12-05T11:31:27.153Z,101014.26
2023-12-05T11:34:04.198Z,101026.32
2023-12-05T11:37:10.625Z,101023.42
2023-12-05T11:39:39.214Z,101027.56
2023-12-05T11:42:11.708Z,101027.90
2023-12-05T11:44:40.409Z,101025.75
2023-12-05T11:47:15.049Z,101024.46
2023-12-05T11:49:56.625Z,101018.13
2023-12-05T11:52:39.119Z,101018.19
2023-12-05T11:55:08.490Z,101020.19
2023-12-05T11:57:36.954Z,101014.23
2023-12-05T12:00:06.091Z,101021.73
2023-12-05T12:02:43.736Z,101028.09
2023-12-05T12:05:13.841Z,101029.61
2023-12-05T12:07:58.266Z,101033.67
2023-12-05T12:10:29.848Z,101031.66
2023-12-05T12:12:59.946Z,101036.64
2023-12-05T12:15:37.991Z,101047.21
2023-12-05T12:18:06.648Z,101054.91
2023-12-05T12:20:35.151Z,101063.08
2023-12-05T12:23:03.758Z,101068.08
2023-12-05T12:25:32.471Z,101068.75
2023-12-05T12:28:01.639Z,101069.62
2023-12-05T12:30:35.689Z,101063.08
2023-12-05T12:33:07.509Z,101055.30
2023-12-05T12:35:36.423Z,101050.30
2023-12-05T12:38:04.884Z,101041.13
2023-12-05T12:40:35.305Z,101037.69
2023-12-05T12:43:04.647Z,101032.84
2023-12-05T12:45:33.139Z,101030.17
2023-12-05T12:48:05.120Z,101030.92
2023-12-05T12:50:33.596Z,101037.22
2023-12-05T12:53:02.143Z,101039.50
2023-12-05T12:55:30.466Z,101039.02
2023-12-05T12:58:02.952Z,101033.75
2023-12-05T13:00:38.605Z,101035.16
2023-12-05T13:03:07.710Z,101042.63
2023-12-05T13:05:37.640Z,101039.02
2023-12-05T13:08:06.428Z,101039.05
2023-12-05T13:10:34.905Z,101044.05
2023-12-05T13:13:04.026Z,101052.41
2023-12-05T13:15:32.834Z,101054.11
2023-12-05T13:18:05.783Z,101053.95
2023-12-05T13:20:48.754Z,101059.23
2023-12-05T13:23:18.604Z,101057.96
2023-12-05T13:25:46.907Z,101058.02
2023-12-05T13:28:15.168Z,101057.66
2023-12-05T13:30:46.296Z,101053.30
2023-12-05T13:33:16.703Z,101052.80
2023-12-05T13:35:45.398Z,101064.70
2023-12-05T13:38:13.935Z,101062.71
2023-12-05T13:40:42.623Z,101062.14
2023-12-05T13:43:10.956Z,101070.27
2023-12-05T13:45:39.283Z,101064.14
2023-12-05T13:48:07.956Z,101063.35
2023-12-05T13:50:36.372Z,101063.91
2023-12-05T13:53:04.919Z,101063.19
2023-12-05T13:55:33.308Z,101074.83
2023-12-05T13:58:01.644Z,101085.04
2023-12-05T14:00:30.086Z,101097.91
2023-12-05T14:02:58.690Z,101099.50
2023-12-05T14:05:27.471Z,101099.65
2023-12-05T14:07:56.151Z,101103.27
2023-12-05T14:10:24.554Z,101103.98
2023-12-05T14:12:53.664Z,101098.61
2023-12-05T14:15:25.080Z,101101.61
2023-12-05T14:17:54.753Z,101100.64
2023-12-05T14:20:23.828Z,101101.66
2023-12-05T14:22:52.168Z,101097.16
2023-12-05T14:25:20.430Z,101094.64
2023-12-05T14:27:48.849Z,101092.73
2023-12-05T14:30:17.692Z,101090.77
2023-12-05T14:32:46.026Z,101097.88
2023-12-05T14:35:14.568Z,101100.27
2023-12-05T14:37:42.876Z,101103.29
2023-12-05T14:40:11.799Z,101104.02
2023-12-05T14:42:40.156Z,101080.80
2023-12-05T14:45:09.884Z,101083.92
2023-12-05T14:47:38.574Z,101083.73
2023-12-05T14:50:07.126Z,101065.23
2023-12-05T14:52:36.485Z,101051.52
2023-12-05T14:55:05.236Z,101047.02
2023-12-05T14:57:33.678Z,101046.85
2023-12-05T15:00:02.614Z,101027.27
2023-12-05T15:02:31.198Z,101019.35
2023-12-05T15:04:59.766Z,101016.09
2023-12-05T15:07:28.386Z,101016.45
2023-12-05T15:09:56.767Z,101015.08
2023-12-05T15:12:26.081Z,101020.70
2023-12-05T15:14:58.080Z,101025.70
2023-12-05T15:17:26.413Z,101024.31
2023-12-05T15:20:18.587Z,101017.05
2023-12-05T15:22:44.186Z,101023.09
2023-12-05T15:25:12.774Z,101027.33
2023-12-05T15:27:41.291Z,101027.22
2023-12-05T15:30:10.504Z,101028.68
2023-12-05T15:32:39.386Z,101024.43
2023-12-05T15:35:08.200Z,101027.83
2023-12-05T15:37:36.905Z,101030.81
2023-12-05T15:40:08.172Z,101041.27
2023-12-05T15:42:36.475Z,101047.19
2023-12-05T15:45:06.454Z,101046.86
2023-12-05T15:47:35.702Z,101055.20
2023-12-05T15:50:06.257Z,101058.45
2023-12-05T15:52:37.365Z,101049.32
2023-12-05T15:55:07.122Z,101048.77
2023-12-05T15:57:36.292Z,101044.83
2023-12-05T16:00:06.388Z,101038.98
2023-12-05T16:02:42.983Z,101044.08
2023-12-05T16:05:12.950Z,101054.94
2023-12-05T16:07:41.905Z,101055.48
2023-12-05T16:10:11.189Z,101059.31
2023-12-05T16:12:39.741Z,101069.21
2023-12-05T16:15:08.763Z,101068.89
2023-12-05T16:17:37.406Z,101061.50
2023-12-05T16:20:06.948Z,101050.30
2023-12-05T16:22:35.403Z,101039.01
2023-12-05T16:25:04.439Z,101038.07
2023-12-05T16:27:36.249Z,101038.23
2023-12-05T16:30:07.151Z,101056.80
2023-12-05T16:32:36.109Z,101068.21
2023-12-05T16:35:05.396Z,101065.79
2023-12-05T16:37:33.839Z,101072.77
2023-12-05T16:40:02.523Z,101073.75
2023-12-05T16:42:31.080Z,101074.13
2023-12-05T16:44:59.892Z,101068.00
2023-12-05T16:47:28.503Z,101066.31
2023-12-05T16:49:57.063Z,101074.28
2023-12-05T16:52:25.665Z,101077.84
2023-12-05T16:54:54.038Z,101082.39
2023-12-05T16:57:25.412Z,101084.78
2023-12-05T16:59:55.526Z,101081.56
2023-12-05T17:02:23.894Z,101090.56
2023-12-05T17:04:52.672Z,101088.02
2023-12-05T17:07:21.526Z,101098.13
2023-12-05T17:09:50.255Z,101101.28
2023-12-05T17:12:18.869Z,101107.66
2023-12-05T17:14:47.732Z,101106.45
2023-12-05T17:17:16.500Z,101113.55
2023-12-05T17:19:45.288Z,101116.58
2023-12-05T17:22:13.773Z,101125.71
2023-12-05T17:24:44.970Z,101131.23
2023-12-05T17:27:14.567Z,101132.83
2023-12-05T17:29:43.603Z,101131.34
2023-12-05T17:32:13.406Z,101137.48
2023-12-05T17:34:42.823Z,101139.51
2023-12-05T17:37:11.805Z,101139.58
2023-12-05T17:39:40.874Z,101141.98
2023-12-05T17:42:09.369Z,101138.74
2023-12-05T17:44:37.589Z,101140.46
2023-12-05T17:47:05.946Z,101136.14
2023-12-05T17:49:34.494Z,101128.94
2023-12-05T17:52:03.399Z,101129.66
2023-12-05T17:54:31.882Z,101133.25
2023-12-05T17:57:00.618Z,101130.27
2023-12-05T17:59:29.246Z,101122.13
2023-12-05T18:01:58.690Z,101120.50
2023-12-05T18:04:27.276Z,101115.11
2023-12-05T18:07:49.727Z,101118.88
2023-12-05T18:09:44.553Z,101123.15
2023-12-05T18:12:12.890Z,101133.02
2023-12-05T18:14:41.184Z,101139.04
2023-12-05T18:17:09.617Z,101141.05
2023-12-05T18:19:38.704Z,101144.85
2023-12-05T18:22:07.339Z,101135.56
2023-12-05T18:24:35.741Z,101136.88
2023-12-05T18:27:04.701Z,101143.10
2023-12-05T18:29:33.423Z,101145.59
2023-12-05T18:32:02.010Z,101150.29
2023-12-05T18:34:30.699Z,101156.55
2023-12-05T18:36:59.315Z,101154.29
2023-12-05T18:39:30.527Z,101149.44
2023-12-05T18:41:59.397Z,101163.38
2023-12-05T18:44:30.388Z,101176.98
2023-12-05T18:46:58.874Z,101174.85
2023-12-05T18:49:27.472Z,101180.02
2023-12-05T18:51:56.732Z,101177.27
2023-12-05T18:54:25.173Z,101177.21
2023-12-05T18:56:53.463Z,101174.58
2023-12-05T18:59:21.952Z,101164.05
2023-12-05T19:01:51.097Z,101162.64
2023-12-05T19:04:19.620Z,101159.44
2023-12-05T19:06:49.725Z,101158.34
2023-12-05T19:09:18.984Z,101160.41
2023-12-05T19:11:47.360Z,101168.23
2023-12-05T19:14:16.759Z,101166.98
2023-12-05T19:16:45.403Z,101161.66
2023-12-05T19:19:14.068Z,101160.98
2023-12-05T19:21:47.288Z,101165.45
2023-12-05T19:24:15.996Z,101172.77
2023-12-05T19:26:44.734Z,101171.59
2023-12-05T19:29:13.477Z,101167.16
2023-12-05T19:31:42.240Z,101162.48
2023-12-05T19:34:10.761Z,101160.98
2023-12-05T19:36:39.360Z,101164.46
2023-12-05T19:39:09.233Z,101160.61
2023-12-05T19:41:37.806Z,101163.30
2023-12-05T19:44:06.262Z,101159.58
2023-12-05T19:46:34.743Z,101151.76
2023-12-05T19:49:04.611Z,101148.91
2023-12-05T19:51:33.540Z,101147.34
2023-12-05T19:54:02.290Z,101151.65
2023-12-05T19:56:30.856Z,101149.15
2023-12-05T19:58:59.222Z,101146.77
2023-12-05T20:01:27.882Z,101145.48
2023-12-05T20:03:56.785Z,101143.98
2023-12-05T20:06:25.364Z,101144.30
2023-12-05T20:08:53.778Z,101145.81
2023-12-05T20:11:22.589Z,101144.93
2023-12-05T20:13:51.649Z,101138.76
2023-12-05T20:16:19.939Z,101142.04
2023-12-05T20:18:50.707Z,101140.74
2023-12-05T20:21:19.128Z,101139.48
2023-12-05T20:23:48.406Z,101138.94
2023-12-05T20:26:16.607Z,101147.39
2023-12-05T20:28:45.284Z,101139.73
2023-12-05T20:31:14.015Z,101128.64
2023-12-05T20:33:47.564Z,101128.80
2023-12-05T20:36:16.698Z,101121.58
2023-12-05T20:38:45.222Z,101111.71
2023-12-05T20:41:13.522Z,101103.06
2023-12-05T20:43:42.264Z,101104.17
2023-12-05T20:46:10.514Z,101107.02
2023-12-05T20:48:38.811Z,101097.70
2023-12-05T20:51:07.295Z,101095.16
2023-12-05T20:53:35.845Z,101089.34
2023-12-05T20:56:04.941Z,101090.64
2023-12-05T20:58:33.631Z,101106.50
2023-12-05T21:01:03.111Z,101121.23
2023-12-05T21:03:31.781Z,101126.20
2023-12-05T21:06:00.058Z,101128.95
2023-12-05T21:09:08.910Z,101129.11
2023-12-05T21:11:17.968Z,101126.29
2023-12-05T21:13:47.659Z,101143.83
2023-12-05T21:16:16.460Z,101153.23
2023-12-05T21:18:45.198Z,101158.14
2023-12-05T21:21:13.876Z,101166.63
2023-12-05T21:23:43.159Z,101174.47
2023-12-05T21:26:11.523Z,101178.55
2023-12-05T21:28:39.724Z,101179.81
2023-12-05T21:31:08.175Z,101174.66
2023-12-05T21:33:36.637Z,101175.41
2023-12-05T21:36:05.587Z,101179.94
2023-12-05T21:38:34.031Z,101189.73
2023-12-05T21:41:02.448Z,101200.80
2023-12-05T21:43:30.925Z,101205.54
2023-12-05T21:45:59.354Z,101207.30
2023-12-05T21:48:28.227Z,101212.04
2023-12-05T21:50:56.605Z,101212.59
2023-12-05T21:53:25.110Z,101211.02
2023-12-05T21:55:53.377Z,101215.30
2023-12-05T21:58:21.938Z,101207.74
2023-12-05T22:00:50.488Z,101203.09
2023-12-05T22:03:19.622Z,101195.66
2023-12-05T22:05:47.954Z,101183.84
2023-12-05T22:08:16.276Z,101178.61
2023-12-05T22:10:44.498Z,101176.22
2023-12-05T22:13:12.880Z,101174.54
2023-12-05T22:15:41.393Z,101165.71
2023-12-05T22:18:09.799Z,101166.05
2023-12-05T22:20:38.854Z,101165.68
2023-12-05T22:23:07.066Z,101163.85
2023-12-05T22:25:35.577Z,101152.48
2023-12-05T22:28:04.277Z,101145.19
2023-12-05T22:30:32.989Z,101142.20
2023-12-05T22:33:01.213Z,101135.90
2023-12-05T22:35:29.928Z,101138.63
2023-12-05T22:37:59.337Z,101140.27
2023-12-05T22:40:28.584Z,101147.80
2023-12-05T22:42:56.805Z,101156.40
2023-12-05T22:45:25.219Z,101157.61
2023-12-05T22:47:53.553Z,101159.65
2023-12-05T22:50:21.885Z,101155.03
2023-12-05T22:52:53.611Z,101159.53
2023-12-05T22:55:22.084Z,101153.49
2023-12-05T22:57:50.715Z,101145.45
2023-12-05T23:00:27.065Z,101141.78
2023-12-05T23:02:57.425Z,101136.63
2023-12-05T23:05:26.228Z,101133.92
2023-12-05T23:07:56.078Z,101140.05
2023-12-05T23:10:24.785Z,101136.29
2023-12-05T23:12:53.194Z,101140.48
2023-12-05T23:15:21.677Z,101139.00
2023-12-05T23:17:49.877Z,101135.39
2023-12-05T23:20:18.834Z,101128.52
2023-12-05T23:22:47.794Z,101128.96
2023-12-05T23:25:17.097Z,101128.33
2023-12-05T23:27:45.413Z,101135.30
2023-12-05T23:30:14.309Z,101138.27
2023-12-05T23:32:42.561Z,101143.59
2023-12-05T23:35:10.802Z,101149.02
2023-12-05T23:37:39.287Z,101148.57
2023-12-05T23:40:08.067Z,101151.59
2023-12-05T23:42:37.363Z,101156.87
2023-12-05T23:45:06.088Z,101156.75
2023-12-05T23:47:34.302Z,101162.66
2023-12-05T23:50:02.513Z,101170.95
2023-12-05T23:52:30.720Z,101176.52
2023-12-05T23:54:59.129Z,101179.41
2023-12-05T23:57:27.330Z,101176.38
2023-12-05T23:59:56.158Z,101177.10
